createdAt,value
2023-05-03T00:02:27.788Z,7.80
2023-05-03T00:04:57.165Z,7.80
2023-05-03T00:07:25.067Z,7.80
2023-05-03T00:09:54.264Z,7.80
2023-05-03T00:12:22.686Z,7.80
2023-05-03T00:14:50.499Z,7.80
2023-05-03T00:17:18.346Z,7.80
2023-05-03T00:19:46.361Z,7.80
2023-05-03T00:22:14.170Z,7.70
2023-05-03T00:24:41.987Z,7.70
2023-05-03T00:27:11.137Z,7.70
2023-05-03T00:29:38.921Z,7.60
2023-05-03T00:32:07.678Z,7.60
2023-05-03T00:34:35.983Z,7.50
2023-05-03T00:37:04.257Z,7.50
2023-05-03T00:39:32.239Z,7.40
2023-05-03T00:42:01.398Z,7.40
2023-05-03T00:44:30.658Z,7.40
2023-05-03T00:46:58.748Z,7.40
2023-05-03T00:49:27.107Z,7.30
2023-05-03T00:51:55.125Z,7.30
2023-05-03T00:54:23.788Z,7.30
2023-05-03T00:56:52.575Z,7.30
2023-05-03T00:59:21.088Z,7.30
2023-05-03T01:01:51.379Z,7.30
2023-05-03T01:04:20.089Z,7.30
2023-05-03T01:06:56.757Z,7.30
2023-05-03T01:09:40.483Z,7.20
2023-05-03T01:12:21.956Z,7.20
2023-05-03T01:14:59.513Z,7.20
2023-05-03T01:17:35.745Z,7.20
2023-05-03T01:20:10.365Z,7.20
2023-05-03T01:22:48.457Z,7.20
2023-05-03T01:25:17.653Z,7.20
2023-05-03T01:27:45.705Z,7.10
2023-05-03T01:30:14.319Z,7.00
2023-05-03T01:32:56.501Z,7.10
2023-05-03T01:35:30.200Z,7.10
2023-05-03T01:37:58.811Z,7.00
2023-05-03T01:40:30.321Z,7.00
2023-05-03T01:43:20.252Z,7.00
2023-05-03T01:45:48.822Z,7.00
2023-05-03T01:48:18.188Z,6.90
2023-05-03T01:50:46.852Z,6.80
2023-05-03T01:53:14.880Z,6.80
2023-05-03T01:55:44.042Z,6.70
2023-05-03T01:58:12.091Z,6.70
2023-05-03T02:00:39.984Z,6.70
2023-05-03T02:03:07.962Z,6.70
2023-05-03T02:05:36.335Z,6.70
2023-05-03T02:08:04.443Z,6.70
2023-05-03T02:10:32.261Z,6.70
2023-05-03T02:13:01.508Z,6.70
2023-05-03T02:15:29.315Z,6.70
2023-05-03T02:17:58.545Z,6.60
2023-05-03T02:20:26.490Z,6.70
2023-05-03T02:22:54.348Z,6.60
2023-05-03T02:25:22.275Z,6.70
2023-05-03T02:27:50.067Z,6.70
2023-05-03T02:30:19.362Z,6.70
2023-05-03T02:32:47.222Z,6.70
2023-05-03T02:35:15.054Z,6.60
2023-05-03T02:37:42.917Z,6.60
2023-05-03T02:40:11.871Z,6.60
2023-05-03T02:42:40.368Z,6.50
2023-05-03T02:45:09.026Z,6.50
2023-05-03T02:47:38.272Z,6.50
2023-05-03T02:50:06.767Z,6.60
2023-05-03T02:52:34.692Z,6.60
2023-05-03T02:55:02.679Z,6.60
2023-05-03T02:57:30.714Z,6.60
2023-05-03T02:59:58.573Z,6.60
2023-05-03T03:02:26.513Z,6.60
2023-05-03T03:04:55.772Z,6.70
2023-05-03T03:07:23.625Z,6.60
2023-05-03T03:09:51.452Z,6.50
2023-05-03T03:12:19.269Z,6.50
2023-05-03T03:14:47.082Z,6.50
2023-05-03T03:17:14.872Z,6.50
2023-05-03T03:19:42.683Z,6.50
2023-05-03T03:22:12.292Z,6.50
2023-05-03T03:24:40.090Z,6.50
2023-05-03T03:27:07.888Z,6.50
2023-05-03T03:29:36.716Z,6.40
2023-05-03T03:32:04.693Z,6.50
2023-05-03T03:34:33.021Z,6.40
2023-05-03T03:37:01.000Z,6.40
2023-05-03T03:39:30.146Z,6.50
2023-05-03T03:41:58.026Z,6.40
2023-05-03T03:44:25.946Z,6.40
2023-05-03T03:46:53.793Z,6.40
2023-05-03T03:49:21.695Z,6.40
2023-05-03T03:51:49.511Z,6.40
2023-05-03T03:54:17.303Z,6.30
2023-05-03T03:56:46.520Z,6.30
2023-05-03T03:59:14.519Z,6.30
2023-05-03T04:01:42.356Z,6.20
2023-05-03T04:04:10.320Z,6.20
2023-05-03T04:06:38.235Z,6.20
2023-05-03T04:09:06.235Z,6.20
2023-05-03T04:11:34.064Z,6.20
2023-05-03T04:14:04.195Z,6.10
2023-05-03T04:16:32.087Z,6.10
2023-05-03T04:18:59.968Z,6.10
2023-05-03T04:21:28.710Z,6.10
2023-05-03T04:23:56.569Z,6.10
2023-05-03T04:26:31.944Z,6.10
2023-05-03T04:29:00.577Z,6.10
2023-05-03T04:31:29.948Z,6.10
2023-05-03T04:33:57.972Z,6.10
2023-05-03T04:36:26.654Z,6.10
2023-05-03T04:38:54.504Z,6.20
2023-05-03T04:41:22.731Z,6.20
2023-05-03T04:43:50.755Z,6.20
2023-05-03T04:46:18.693Z,6.30
2023-05-03T04:48:47.886Z,6.40
2023-05-03T04:51:15.774Z,6.40
2023-05-03T04:53:43.603Z,6.40
2023-05-03T04:56:11.730Z,6.50
2023-05-03T04:58:39.549Z,6.60
2023-05-03T05:01:08.078Z,6.70
2023-05-03T05:03:36.154Z,6.80
2023-05-03T05:06:07.101Z,6.90
2023-05-03T05:08:35.305Z,6.90
2023-05-03T05:11:03.848Z,7.00
2023-05-03T05:13:31.748Z,7.10
2023-05-03T05:15:59.536Z,7.10
2023-05-03T05:18:27.372Z,7.20
2023-05-03T05:20:55.391Z,7.30
2023-05-03T05:23:24.606Z,7.30
2023-05-03T05:25:53.955Z,7.40
2023-05-03T05:28:21.811Z,7.40
2023-05-03T05:30:49.608Z,7.50
2023-05-03T05:33:19.212Z,7.60
2023-05-03T05:35:49.767Z,7.70
2023-05-03T05:38:18.417Z,7.90
2023-05-03T05:40:47.580Z,8.00
2023-05-03T05:43:15.397Z,8.10
2023-05-03T05:45:43.247Z,8.20
2023-05-03T05:48:11.230Z,8.30
2023-05-03T05:50:39.091Z,8.30
2023-05-03T05:53:08.963Z,8.30
2023-05-03T05:55:36.798Z,8.40
2023-05-03T05:58:06.209Z,8.60
2023-05-03T06:00:34.875Z,8.60
2023-05-03T06:03:02.741Z,8.70
2023-05-03T06:05:30.757Z,8.70
2023-05-03T06:07:58.628Z,8.80
2023-05-03T06:10:26.466Z,8.90
2023-05-03T06:12:54.346Z,9.00
2023-05-03T06:15:23.509Z,9.20
2023-05-03T06:17:51.368Z,9.20
2023-05-03T06:20:19.508Z,9.20
2023-05-03T06:22:47.371Z,9.30
2023-05-03T06:25:16.982Z,9.40
2023-05-03T06:27:45.774Z,9.40
2023-05-03T06:30:14.288Z,9.60
2023-05-03T06:32:44.352Z,9.70
2023-05-03T06:35:12.507Z,9.70
2023-05-03T06:37:40.490Z,9.70
2023-05-03T06:40:09.553Z,9.70
2023-05-03T06:42:37.408Z,9.80
2023-05-03T06:45:06.006Z,9.80
2023-05-03T06:47:33.989Z,9.90
2023-05-03T06:50:03.454Z,10.00
2023-05-03T06:52:31.454Z,9.90
2023-05-03T06:54:59.341Z,9.90
2023-05-03T06:57:28.815Z,10.10
2023-05-03T06:59:56.977Z,10.30
2023-05-03T07:02:25.967Z,10.30
2023-05-03T07:04:53.892Z,10.30
2023-05-03T07:07:23.244Z,10.20
2023-05-03T07:09:51.175Z,10.00
2023-05-03T07:12:19.025Z,10.00
2023-05-03T07:14:47.342Z,10.00
2023-05-03T07:17:15.181Z,10.20
2023-05-03T07:19:43.133Z,10.40
2023-05-03T07:22:11.014Z,10.40
2023-05-03T07:24:40.194Z,10.50
2023-05-03T07:27:08.340Z,10.70
2023-05-03T07:29:36.195Z,10.80
2023-05-03T07:32:04.592Z,11.00
2023-05-03T07:34:32.668Z,11.20
2023-05-03T07:37:00.541Z,11.40
2023-05-03T07:39:28.329Z,11.50
2023-05-03T07:41:57.548Z,11.70
2023-05-03T07:44:25.379Z,11.80
2023-05-03T07:46:53.206Z,11.80
2023-05-03T07:49:21.068Z,12.00
2023-05-03T07:51:48.901Z,11.90
2023-05-03T07:54:16.739Z,12.10
2023-05-03T07:56:44.721Z,12.10
2023-05-03T07:59:13.900Z,12.00
2023-05-03T08:01:41.753Z,12.10
2023-05-03T08:04:09.882Z,12.30
2023-05-03T08:06:38.573Z,12.50
2023-05-03T08:09:06.685Z,12.50
2023-05-03T08:11:34.768Z,12.70
2023-05-03T08:14:02.779Z,12.90
2023-05-03T08:16:32.016Z,13.00
2023-05-03T08:18:59.990Z,13.20
2023-05-03T08:21:28.505Z,13.30
2023-05-03T08:23:56.325Z,13.40
2023-05-03T08:26:28.541Z,13.50
2023-05-03T08:28:56.616Z,13.50
2023-05-03T08:31:24.487Z,13.80
2023-05-03T08:33:53.716Z,13.90
2023-05-03T08:36:21.539Z,14.10
2023-05-03T08:38:50.463Z,14.30
2023-05-03T08:41:31.133Z,14.50
2023-05-03T08:44:01.123Z,14.40
2023-05-03T08:46:29.758Z,14.60
2023-05-03T08:49:01.094Z,14.60
2023-05-03T08:51:29.008Z,14.80
2023-05-03T08:53:57.013Z,15.00
2023-05-03T08:56:33.160Z,14.90
2023-05-03T08:59:07.406Z,15.00
2023-05-03T09:01:37.227Z,15.20
2023-05-03T09:04:06.979Z,15.20
2023-05-03T09:06:36.379Z,15.20
2023-05-03T09:09:07.241Z,15.30
2023-05-03T09:11:36.635Z,15.20
2023-05-03T09:14:11.612Z,15.20
2023-05-03T09:16:40.874Z,15.30
2023-05-03T09:19:12.379Z,15.60
2023-05-03T09:21:40.910Z,15.40
2023-05-03T09:24:15.918Z,15.60
2023-05-03T09:26:44.287Z,15.60
2023-05-03T09:29:27.363Z,15.50
2023-05-03T09:32:00.611Z,15.70
2023-05-03T09:34:30.008Z,15.70
2023-05-03T09:36:57.885Z,15.90
2023-05-03T09:39:26.432Z,16.00
2023-05-03T09:41:54.932Z,16.20
2023-05-03T09:44:41.596Z,16.30
2023-05-03T09:47:10.045Z,16.40
2023-05-03T09:49:39.552Z,16.60
2023-05-03T09:52:08.789Z,16.80
2023-05-03T09:54:38.012Z,17.00
2023-05-03T09:57:07.997Z,17.00
2023-05-03T09:59:37.445Z,17.20
2023-05-03T10:02:08.326Z,17.10
2023-05-03T10:04:44.622Z,17.10
2023-05-03T10:07:15.236Z,17.00
2023-05-03T10:09:45.618Z,17.20
2023-05-03T10:12:16.985Z,17.30
2023-05-03T10:14:46.983Z,17.50
2023-05-03T10:17:19.497Z,17.70
2023-05-03T10:19:56.746Z,17.70
2023-05-03T10:22:24.672Z,17.90
2023-05-03T10:25:13.996Z,18.00
2023-05-03T10:27:52.806Z,18.20
2023-05-03T10:30:32.551Z,18.40
2023-05-03T10:33:00.733Z,18.50
2023-05-03T10:35:31.660Z,18.70
2023-05-03T10:37:59.528Z,18.60
2023-05-03T10:40:42.771Z,18.60
2023-05-03T10:43:46.845Z,18.70
2023-05-03T10:46:35.735Z,18.30
2023-05-03T10:49:23.660Z,18.40
2023-05-03T10:51:51.752Z,18.70
2023-05-03T10:54:19.991Z,18.90
2023-05-03T10:56:56.347Z,19.30
2023-05-03T10:59:26.297Z,19.40
2023-05-03T11:01:54.458Z,19.50
2023-05-03T11:04:39.293Z,19.40
2023-05-03T11:07:07.198Z,19.40
2023-05-03T11:09:35.723Z,19.30
2023-05-03T11:12:08.451Z,19.50
2023-05-03T11:14:39.578Z,19.90
2023-05-03T11:17:07.492Z,20.50
2023-05-03T11:19:35.352Z,20.30
2023-05-03T11:22:03.278Z,20.30
2023-05-03T11:24:31.137Z,20.10
2023-05-03T11:26:58.968Z,20.10
2023-05-03T11:29:27.262Z,20.00
2023-05-03T11:31:57.158Z,20.10
2023-05-03T11:34:25.848Z,20.10
2023-05-03T11:36:53.686Z,20.20
2023-05-03T11:39:21.541Z,20.50
2023-05-03T11:42:04.274Z,20.30
2023-05-03T11:44:32.218Z,20.30
2023-05-03T11:47:01.805Z,20.50
2023-05-03T11:49:30.098Z,20.70
2023-05-03T11:51:58.617Z,20.60
2023-05-03T11:54:28.001Z,20.40
2023-05-03T11:57:00.009Z,20.70
2023-05-03T11:59:38.569Z,20.90
2023-05-03T12:02:10.724Z,20.80
2023-05-03T12:04:41.582Z,20.90
2023-05-03T12:07:11.324Z,20.70
2023-05-03T12:09:40.637Z,20.90
2023-05-03T12:12:10.854Z,20.70
2023-05-03T12:15:00.359Z,20.90
2023-05-03T12:17:38.389Z,21.10
2023-05-03T12:22:53.801Z,21.30
2023-05-03T12:25:26.886Z,21.50
2023-05-03T12:28:17.963Z,21.50
2023-05-03T12:30:46.678Z,21.60
2023-05-03T12:33:21.736Z,21.70
2023-05-03T12:35:53.512Z,22.10
2023-05-03T12:38:23.926Z,22.70
2023-05-03T12:40:53.102Z,22.50
2023-05-03T12:43:21.501Z,23.10
2023-05-03T12:46:01.562Z,22.60
2023-05-03T12:48:38.923Z,22.30
2023-05-03T12:51:19.499Z,22.30
2023-05-03T12:53:54.349Z,22.30
2023-05-03T12:56:24.863Z,22.40
2023-05-03T12:59:19.018Z,22.30
2023-05-03T13:06:46.835Z,22.60
2023-05-03T13:09:20.504Z,22.80
2023-05-03T13:11:50.972Z,23.00
2023-05-03T13:14:19.003Z,22.90
2023-05-03T13:16:47.461Z,22.50
2023-05-03T13:19:17.279Z,22.30
2023-05-03T13:21:45.132Z,22.10
2023-05-03T13:24:12.961Z,22.50
2023-05-03T13:26:40.784Z,22.30
2023-05-03T13:29:09.357Z,22.70
2023-05-03T13:31:37.293Z,22.80
2023-05-03T13:34:06.758Z,22.90
2023-05-03T13:36:36.046Z,22.50
2023-05-03T13:39:03.909Z,22.40
2023-05-03T13:41:32.060Z,22.90
2023-05-03T13:43:59.897Z,23.00
2023-05-03T13:46:27.727Z,23.00
2023-05-03T13:48:56.380Z,23.10
2023-05-03T13:51:25.625Z,23.00
2023-05-03T13:53:54.882Z,22.70
2023-05-03T13:56:22.710Z,22.70
2023-05-03T13:58:50.757Z,22.60
2023-05-03T14:01:18.726Z,22.70
2023-05-03T14:03:46.605Z,23.20
2023-05-03T14:06:14.794Z,23.20
2023-05-03T14:08:42.757Z,23.30
2023-05-03T14:11:14.961Z,23.30
2023-05-03T14:13:55.378Z,23.60
2023-05-03T14:19:00.029Z,23.20
2023-05-03T14:21:31.682Z,23.40
2023-05-03T14:23:59.501Z,23.70
2023-05-03T14:26:29.327Z,23.70
2023-05-03T14:28:57.372Z,24.10
2023-05-03T14:31:25.428Z,24.20
2023-05-03T14:33:53.557Z,24.10
2023-05-03T14:36:21.484Z,24.00
2023-05-03T14:38:49.402Z,24.40
2023-05-03T14:41:17.227Z,24.20
2023-05-03T14:43:47.305Z,23.70
2023-05-03T14:46:15.209Z,23.80
2023-05-03T14:48:43.050Z,24.20
2023-05-03T14:51:10.861Z,24.40
2023-05-03T14:53:38.688Z,23.80
2023-05-03T14:56:06.854Z,23.70
2023-05-03T14:58:34.705Z,23.10
2023-05-03T15:01:03.930Z,23.20
2023-05-03T15:03:32.040Z,23.20
2023-05-03T15:06:00.243Z,23.50
2023-05-03T15:08:28.784Z,22.90
2023-05-03T15:10:56.645Z,23.10
2023-05-03T15:13:25.023Z,23.10
2023-05-03T15:15:53.216Z,23.30
2023-05-03T15:18:23.033Z,23.70
2023-05-03T15:20:51.158Z,23.40
2023-05-03T15:23:18.993Z,22.90
2023-05-03T15:25:46.777Z,22.80
2023-05-03T15:28:14.610Z,22.30
2023-05-03T15:30:42.454Z,22.70
2023-05-03T15:33:11.227Z,23.00
2023-05-03T15:35:41.850Z,22.90
2023-05-03T15:38:09.798Z,22.60
2023-05-03T15:40:37.745Z,22.30
2023-05-03T15:43:05.626Z,22.00
2023-05-03T15:45:33.462Z,21.80
2023-05-03T15:48:01.819Z,21.60
2023-05-03T15:50:31.385Z,21.40
2023-05-03T15:53:00.582Z,21.30
2023-05-03T15:55:28.413Z,20.90
2023-05-03T15:57:57.043Z,20.80
2023-05-03T16:00:25.765Z,21.00
2023-05-03T16:02:53.977Z,20.80
2023-05-03T16:05:23.085Z,20.80
2023-05-03T16:07:51.821Z,20.50
2023-05-03T16:10:23.389Z,20.30
2023-05-03T16:12:52.551Z,20.20
2023-05-03T16:15:20.521Z,20.00
2023-05-03T16:17:49.348Z,19.90
2023-05-03T16:20:17.234Z,19.80
2023-05-03T16:22:46.123Z,19.80
2023-05-03T16:25:15.393Z,19.50
2023-05-03T16:27:44.588Z,19.20
2023-05-03T16:30:13.182Z,19.10
2023-05-03T16:32:43.785Z,19.00
2023-05-03T16:35:11.751Z,18.90
2023-05-03T16:37:40.719Z,18.80
2023-05-03T16:40:11.255Z,18.70
2023-05-03T16:42:39.586Z,18.60
2023-05-03T16:45:10.697Z,18.50
2023-05-03T16:47:38.728Z,18.40
2023-05-03T16:50:08.417Z,18.40
2023-05-03T16:52:39.856Z,18.40
2023-05-03T16:55:08.992Z,18.30
2023-05-03T16:57:37.457Z,18.20
2023-05-03T17:00:09.171Z,18.10
2023-05-03T17:02:39.774Z,18.10
2023-05-03T17:05:08.799Z,18.10
2023-05-03T17:07:36.644Z,18.00
2023-05-03T17:10:06.270Z,17.90
2023-05-03T17:12:34.668Z,17.80
2023-05-03T17:15:02.588Z,17.80
2023-05-03T17:17:32.190Z,17.80
2023-05-03T17:20:01.569Z,17.80
2023-05-03T17:22:29.567Z,17.80
2023-05-03T17:24:58.267Z,17.80
2023-05-03T17:27:26.293Z,17.80
2023-05-03T17:29:56.840Z,17.80
2023-05-03T17:32:24.820Z,17.80
2023-05-03T17:34:52.716Z,17.70
2023-05-03T17:37:23.717Z,17.70
2023-05-03T17:39:51.590Z,17.70
2023-05-03T17:42:20.214Z,17.70
2023-05-03T17:44:48.032Z,17.60
2023-05-03T17:47:16.643Z,17.60
2023-05-03T17:49:44.549Z,17.50
2023-05-03T17:52:12.370Z,17.50
2023-05-03T17:54:43.034Z,17.40
2023-05-03T17:57:11.049Z,17.40
2023-05-03T17:59:39.046Z,17.40
2023-05-03T18:02:08.224Z,17.30
2023-05-03T18:04:36.372Z,17.30
2023-05-03T18:07:04.197Z,17.20
2023-05-03T18:09:32.957Z,17.10
2023-05-03T18:12:03.515Z,17.10
2023-05-03T18:14:31.858Z,17.20
2023-05-03T18:16:59.676Z,17.10
2023-05-03T18:19:27.522Z,17.20
2023-05-03T18:21:55.320Z,17.10
2023-05-03T18:24:23.595Z,17.00
2023-05-03T18:26:51.449Z,16.90
2023-05-03T18:29:20.625Z,16.90
2023-05-03T18:31:49.171Z,16.80
2023-05-03T18:34:17.099Z,16.70
2023-05-03T18:36:44.898Z,16.60
2023-05-03T18:39:13.012Z,16.60
2023-05-03T18:41:40.897Z,16.60
2023-05-03T18:44:08.700Z,16.40
2023-05-03T18:46:38.111Z,16.40
2023-05-03T18:49:05.992Z,16.40
2023-05-03T18:51:33.803Z,16.30
2023-05-03T18:54:01.686Z,16.20
2023-05-03T18:56:31.259Z,16.20
2023-05-03T18:58:59.116Z,16.10
2023-05-03T19:01:27.339Z,16.00
2023-05-03T19:03:56.956Z,15.80
2023-05-03T19:06:24.772Z,15.70
2023-05-03T19:08:53.608Z,15.60
2023-05-03T19:11:21.627Z,15.50
2023-05-03T19:13:49.444Z,15.30
2023-05-03T19:16:17.540Z,15.20
2023-05-03T19:18:46.041Z,15.20
2023-05-03T19:21:17.159Z,15.10
2023-05-03T19:23:45.182Z,15.10
2023-05-03T19:26:13.060Z,15.00
2023-05-03T19:28:40.857Z,14.80
2023-05-03T19:31:08.786Z,14.70
2023-05-03T19:33:37.177Z,14.70
2023-05-03T19:36:07.097Z,14.60
2023-05-03T19:38:36.669Z,14.50
2023-05-03T19:41:08.124Z,14.50
2023-05-03T19:43:36.092Z,14.40
2023-05-03T19:46:03.954Z,14.30
2023-05-03T19:48:32.061Z,14.20
2023-05-03T19:50:59.887Z,14.20
2023-05-03T19:53:28.212Z,14.00
2023-05-03T19:55:58.850Z,14.00
2023-05-03T19:58:27.552Z,13.90
2023-05-03T20:00:55.659Z,13.90
2023-05-03T20:03:24.276Z,13.90
2023-05-03T20:05:52.539Z,13.90
2023-05-03T20:08:20.436Z,13.90
2023-05-03T20:10:49.751Z,13.70
2023-05-03T20:13:19.172Z,13.80
2023-05-03T20:15:47.831Z,13.80
2023-05-03T20:18:15.895Z,13.80
2023-05-03T20:20:43.761Z,13.80
2023-05-03T20:23:11.849Z,13.60
2023-05-03T20:25:39.681Z,13.60
2023-05-03T20:28:07.916Z,13.50
2023-05-03T20:30:37.195Z,13.40
2023-05-03T20:33:05.295Z,13.30
2023-05-03T20:35:33.206Z,13.30
2023-05-03T20:38:01.075Z,13.30
2023-05-03T20:40:28.887Z,13.20
2023-05-03T20:42:56.713Z,13.10
2023-05-03T20:45:24.602Z,13.10
2023-05-03T20:47:53.831Z,13.00
2023-05-03T20:50:22.097Z,13.00
2023-05-03T20:52:50.103Z,13.00
2023-05-03T20:55:18.186Z,12.90
2023-05-03T20:57:46.105Z,13.00
2023-05-03T21:00:15.797Z,12.90
2023-05-03T21:02:44.061Z,12.80
2023-05-03T21:05:13.419Z,12.80
2023-05-03T21:07:41.744Z,12.70
2023-05-03T21:10:10.694Z,12.60
2023-05-03T21:12:38.572Z,12.60
2023-05-03T21:15:07.277Z,12.60
2023-05-03T21:17:35.206Z,12.60
2023-05-03T21:20:03.863Z,12.60
2023-05-03T21:22:33.332Z,12.60
2023-05-03T21:25:01.293Z,12.50
2023-05-03T21:27:29.121Z,12.40
2023-05-03T21:29:57.001Z,12.40
2023-05-03T21:32:24.842Z,12.30
2023-05-03T21:34:53.686Z,12.20
2023-05-03T21:37:21.629Z,12.20
2023-05-03T21:40:00.937Z,12.10
2023-05-03T21:42:29.622Z,12.10
2023-05-03T21:44:57.607Z,12.00
2023-05-03T21:47:25.489Z,11.90
2023-05-03T21:49:53.308Z,11.90
2023-05-03T21:52:21.260Z,11.90
2023-05-03T21:54:50.424Z,11.90
2023-05-03T21:57:18.880Z,11.90
2023-05-03T21:59:47.329Z,11.80
2023-05-03T22:02:15.213Z,11.80
2023-05-03T22:04:43.469Z,11.70
2023-05-03T22:07:11.360Z,11.70
2023-05-03T22:09:39.185Z,11.60
2023-05-03T22:12:22.266Z,11.70
2023-05-03T22:14:52.229Z,11.60
2023-05-03T22:17:20.590Z,11.60
2023-05-03T22:19:48.621Z,11.60
2023-05-03T22:22:16.526Z,11.60
2023-05-03T22:24:44.581Z,11.60
2023-05-03T22:27:13.721Z,11.60
2023-05-03T22:29:41.699Z,11.70
2023-05-03T22:32:09.620Z,11.70
2023-05-03T22:34:37.417Z,11.60
2023-05-03T22:37:05.253Z,11.60
2023-05-03T22:39:33.169Z,11.70
2023-05-03T22:42:01.018Z,11.70
2023-05-03T22:44:30.406Z,11.70
2023-05-03T22:46:58.266Z,11.70
2023-05-03T22:49:26.293Z,11.70
2023-05-03T22:51:54.127Z,11.70
2023-05-03T22:54:22.472Z,11.70
2023-05-03T22:56:51.589Z,11.60
2023-05-03T22:59:29.830Z,11.50
2023-05-03T23:01:57.718Z,11.40
2023-05-03T23:04:25.640Z,11.40
2023-05-03T23:06:53.847Z,11.30
2023-05-03T23:09:21.719Z,11.30
2023-05-03T23:11:49.569Z,11.30
2023-05-03T23:14:17.526Z,11.40
2023-05-03T23:16:46.943Z,11.40
2023-05-03T23:19:14.770Z,11.30
2023-05-03T23:21:42.852Z,11.30
2023-05-03T23:24:11.382Z,11.20
2023-05-03T23:26:39.476Z,11.10
2023-05-03T23:29:08.432Z,11.20
2023-05-03T23:31:36.997Z,11.20
2023-05-03T23:34:06.965Z,11.20
2023-05-03T23:36:34.836Z,11.20
2023-05-03T23:39:02.861Z,11.20
2023-05-03T23:41:30.752Z,11.20
2023-05-03T23:43:58.578Z,11.40
2023-05-03T23:46:26.752Z,11.30
2023-05-03T23:48:54.839Z,11.30
2023-05-03T23:51:24.010Z,11.20
2023-05-03T23:53:52.755Z,11.10
2023-05-03T23:56:20.653Z,11.10
2023-05-03T23:58:48.538Z,11.00
